sensor_id;sensor_type;location;lat;lon;timestamp;P1;durP1;ratioP1;P2;durP2;ratioP2
11269;SDS011;5692;48.956;9.200;2022-11-02T00:01:42;159.45;;;151.85;;
11269;SDS011;5692;48.956;9.200;2022-11-02T00:04:07;175.32;;;166.93;;
11269;SDS011;5692;48.956;9.200;2022-11-02T00:06:34;170.23;;;162.07;;
11269;SDS011;5692;48.956;9.200;2022-11-02T00:09:10;166.45;;;158.48;;
11269;SDS011;5692;48.956;9.200;2022-11-02T00:11:40;161.32;;;153.60;;
11269;SDS011;5692;48.956;9.200;2022-11-02T00:14:10;166.70;;;158.70;;
11269;SDS011;5692;48.956;9.200;2022-11-02T00:16:37;166.40;;;158.43;;
11269;SDS011;5692;48.956;9.200;2022-11-02T00:19:08;162.73;;;154.93;;
11269;SDS011;5692;48.956;9.200;2022-11-02T00:24:26;161.00;;;153.27;;
11269;SDS011;5692;48.956;9.200;2022-11-02T00:26:58;160.95;;;153.25;;
11269;SDS011;5692;48.956;9.200;2022-11-02T00:29:27;154.70;;;147.30;;
11269;SDS011;5692;48.956;9.200;2022-11-02T00:31:53;157.90;;;150.32;;
11269;SDS011;5692;48.956;9.200;2022-11-02T00:34:20;155.75;;;148.30;;
11269;SDS011;5692;48.956;9.200;2022-11-02T00:36:47;171.45;;;163.23;;
11269;SDS011;5692;48.956;9.200;2022-11-02T00:39:16;154.60;;;147.18;;
11269;SDS011;5692;48.956;9.200;2022-11-02T00:42:05;152.57;;;145.25;;
11269;SDS011;5692;48.956;9.200;2022-11-02T00:44:35;158.20;;;150.60;;
11269;SDS011;5692;48.956;9.200;2022-11-02T00:47:01;161.65;;;153.90;;
11269;SDS011;5692;48.956;9.200;2022-11-02T00:49:31;159.35;;;151.73;;
11269;SDS011;5692;48.956;9.200;2022-11-02T00:51:57;161.60;;;153.88;;
11269;SDS011;5692;48.956;9.200;2022-11-02T00:54:27;162.48;;;154.68;;
11269;SDS011;5692;48.956;9.200;2022-11-02T00:56:53;156.60;;;149.10;;
11269;SDS011;5692;48.956;9.200;2022-11-02T00:59:20;151.95;;;144.65;;
11269;SDS011;5692;48.956;9.200;2022-11-02T01:02:07;150.23;;;143.02;;
11269;SDS011;5692;48.956;9.200;2022-11-02T01:04:33;163.18;;;155.35;;
11269;SDS011;5692;48.956;9.200;2022-11-02T01:07:02;159.25;;;151.65;;
11269;SDS011;5692;48.956;9.200;2022-11-02T01:09:28;164.30;;;156.40;;
11269;SDS011;5692;48.956;9.200;2022-11-02T01:11:58;166.25;;;158.27;;
11269;SDS011;5692;48.956;9.200;2022-11-02T01:14:30;171.85;;;163.63;;
11269;SDS011;5692;48.956;9.200;2022-11-02T01:16:56;167.65;;;159.63;;
11269;SDS011;5692;48.956;9.200;2022-11-02T01:19:23;159.93;;;152.25;;
11269;SDS011;5692;48.956;9.200;2022-11-02T01:21:50;149.40;;;142.25;;
11269;SDS011;5692;48.956;9.200;2022-11-02T01:24:17;157.73;;;150.13;;
11269;SDS011;5692;48.956;9.200;2022-11-02T01:26:43;155.23;;;147.80;;
11269;SDS011;5692;48.956;9.200;2022-11-02T01:29:14;164.15;;;156.27;;
11269;SDS011;5692;48.956;9.200;2022-11-02T01:31:40;164.85;;;156.95;;
11269;SDS011;5692;48.956;9.200;2022-11-02T01:34:14;162.65;;;154.88;;
11269;SDS011;5692;48.956;9.200;2022-11-02T01:36:40;167.85;;;159.80;;
11269;SDS011;5692;48.956;9.200;2022-11-02T01:39:09;169.93;;;161.80;;
11269;SDS011;5692;48.956;9.200;2022-11-02T01:41:35;165.07;;;157.18;;
11269;SDS011;5692;48.956;9.200;2022-11-02T01:46:54;165.88;;;157.93;;
11269;SDS011;5692;48.956;9.200;2022-11-02T01:49:22;173.18;;;164.88;;
11269;SDS011;5692;48.956;9.200;2022-11-02T01:52:06;161.38;;;153.65;;
11269;SDS011;5692;48.956;9.200;2022-11-02T01:54:41;165.73;;;157.80;;
11269;SDS011;5692;48.956;9.200;2022-11-02T01:57:12;164.18;;;156.27;;
11269;SDS011;5692;48.956;9.200;2022-11-02T01:59:44;160.75;;;153.05;;
11269;SDS011;5692;48.956;9.200;2022-11-02T02:02:19;158.38;;;150.77;;
11269;SDS011;5692;48.956;9.200;2022-11-02T02:04:48;170.38;;;162.23;;
11269;SDS011;5692;48.956;9.200;2022-11-02T02:07:22;159.88;;;152.18;;
11269;SDS011;5692;48.956;9.200;2022-11-02T02:09:48;154.60;;;147.20;;
11269;SDS011;5692;48.956;9.200;2022-11-02T02:12:15;154.95;;;147.52;;
11269;SDS011;5692;48.956;9.200;2022-11-02T02:14:48;154.82;;;147.40;;
11269;SDS011;5692;48.956;9.200;2022-11-02T02:22:27;164.68;;;156.77;;
11269;SDS011;5692;48.956;9.200;2022-11-02T02:30:23;156.15;;;148.65;;
11269;SDS011;5692;48.956;9.200;2022-11-02T02:32:55;159.60;;;151.95;;
11269;SDS011;5692;48.956;9.200;2022-11-02T02:35:27;161.40;;;153.65;;
11269;SDS011;5692;48.956;9.200;2022-11-02T02:38:03;169.82;;;161.73;;
11269;SDS011;5692;48.956;9.200;2022-11-02T02:40:32;161.25;;;153.55;;
11269;SDS011;5692;48.956;9.200;2022-11-02T02:43:03;167.50;;;159.48;;
11269;SDS011;5692;48.956;9.200;2022-11-02T02:45:38;160.40;;;152.70;;
11269;SDS011;5692;48.956;9.200;2022-11-02T02:48:13;159.20;;;151.60;;
11269;SDS011;5692;48.956;9.200;2022-11-02T02:50:50;171.45;;;163.25;;
11269;SDS011;5692;48.956;9.200;2022-11-02T02:53:23;155.27;;;147.82;;
11269;SDS011;5692;48.956;9.200;2022-11-02T02:55:52;159.40;;;151.75;;
11269;SDS011;5692;48.956;9.200;2022-11-02T02:58:23;161.45;;;153.75;;
11269;SDS011;5692;48.956;9.200;2022-11-02T03:00:54;165.52;;;157.60;;
11269;SDS011;5692;48.956;9.200;2022-11-02T03:03:23;166.50;;;158.52;;
11269;SDS011;5692;48.956;9.200;2022-11-02T03:08:37;154.70;;;147.27;;
11269;SDS011;5692;48.956;9.200;2022-11-02T03:11:19;160.93;;;153.23;;
11269;SDS011;5692;48.956;9.200;2022-11-02T03:16:33;151.95;;;144.65;;
11269;SDS011;5692;48.956;9.200;2022-11-02T03:19:07;146.25;;;139.25;;
11269;SDS011;5692;48.956;9.200;2022-11-02T03:22:01;162.43;;;154.63;;
11269;SDS011;5692;48.956;9.200;2022-11-02T03:27:08;154.30;;;146.90;;
11269;SDS011;5692;48.956;9.200;2022-11-02T03:32:11;148.20;;;141.10;;
11269;SDS011;5692;48.956;9.200;2022-11-02T03:34:44;154.80;;;147.40;;
11269;SDS011;5692;48.956;9.200;2022-11-02T03:37:28;144.07;;;137.18;;
11269;SDS011;5692;48.956;9.200;2022-11-02T03:42:31;154.48;;;147.07;;
11269;SDS011;5692;48.956;9.200;2022-11-02T03:45:05;145.60;;;138.60;;
11269;SDS011;5692;48.956;9.200;2022-11-02T03:47:32;143.10;;;136.20;;
11269;SDS011;5692;48.956;9.200;2022-11-02T03:50:00;147.07;;;140.02;;
11269;SDS011;5692;48.956;9.200;2022-11-02T03:52:34;150.00;;;142.80;;
11269;SDS011;5692;48.956;9.200;2022-11-02T03:55:06;154.48;;;147.07;;
11269;SDS011;5692;48.956;9.200;2022-11-02T03:57:41;151.18;;;143.93;;
11269;SDS011;5692;48.956;9.200;2022-11-02T04:00:19;168.50;;;160.40;;
11269;SDS011;5692;48.956;9.200;2022-11-02T04:02:47;153.13;;;145.80;;
11269;SDS011;5692;48.956;9.200;2022-11-02T04:05:14;152.45;;;145.15;;
11269;SDS011;5692;48.956;9.200;2022-11-02T04:07:41;154.20;;;146.80;;
11269;SDS011;5692;48.956;9.200;2022-11-02T04:10:35;151.13;;;143.90;;
11269;SDS011;5692;48.956;9.200;2022-11-02T04:13:21;157.80;;;150.23;;
11269;SDS011;5692;48.956;9.200;2022-11-02T04:16:06;149.75;;;142.55;;
11269;SDS011;5692;48.956;9.200;2022-11-02T04:18:32;146.27;;;139.27;;
11269;SDS011;5692;48.956;9.200;2022-11-02T04:21:22;152.80;;;145.45;;
11269;SDS011;5692;48.956;9.200;2022-11-02T04:24:00;158.43;;;150.82;;
11269;SDS011;5692;48.956;9.200;2022-11-02T04:26:45;143.05;;;136.18;;
11269;SDS011;5692;48.956;9.200;2022-11-02T04:29:14;148.02;;;140.93;;
11269;SDS011;5692;48.956;9.200;2022-11-02T04:31:44;153.70;;;146.35;;
11269;SDS011;5692;48.956;9.200;2022-11-02T04:34:13;150.98;;;143.73;;
11269;SDS011;5692;48.956;9.200;2022-11-02T04:36:40;157.10;;;149.55;;
11269;SDS011;5692;48.956;9.200;2022-11-02T04:39:06;131.95;;;125.65;;
11269;SDS011;5692;48.956;9.200;2022-11-02T04:41:32;135.63;;;129.13;;
11269;SDS011;5692;48.956;9.200;2022-11-02T04:44:17;139.60;;;132.90;;
11269;SDS011;5692;48.956;9.200;2022-11-02T04:46:44;139.35;;;132.65;;
11269;SDS011;5692;48.956;9.200;2022-11-02T04:49:13;135.77;;;129.27;;
11269;SDS011;5692;48.956;9.200;2022-11-02T04:51:47;138.38;;;131.77;;
11269;SDS011;5692;48.956;9.200;2022-11-02T04:54:14;148.75;;;141.65;;
11269;SDS011;5692;48.956;9.200;2022-11-02T04:56:50;152.90;;;145.55;;
11269;SDS011;5692;48.956;9.200;2022-11-02T04:59:16;159.63;;;151.98;;
11269;SDS011;5692;48.956;9.200;2022-11-02T05:01:43;164.80;;;156.90;;
11269;SDS011;5692;48.956;9.200;2022-11-02T05:04:12;139.85;;;133.15;;
11269;SDS011;5692;48.956;9.200;2022-11-02T05:06:39;193.88;;;184.60;;
11269;SDS011;5692;48.956;9.200;2022-11-02T05:09:09;192.15;;;182.95;;
11269;SDS011;5692;48.956;9.200;2022-11-02T05:11:35;159.25;;;151.63;;
11269;SDS011;5692;48.956;9.200;2022-11-02T05:14:02;171.10;;;162.90;;
11269;SDS011;5692;48.956;9.200;2022-11-02T05:16:28;167.68;;;159.63;;
11269;SDS011;5692;48.956;9.200;2022-11-02T05:18:58;163.88;;;156.02;;
11269;SDS011;5692;48.956;9.200;2022-11-02T05:21:24;140.80;;;134.05;;
11269;SDS011;5692;48.956;9.200;2022-11-02T05:23:54;167.48;;;159.45;;
11269;SDS011;5692;48.956;9.200;2022-11-02T05:26:20;179.13;;;170.55;;
11269;SDS011;5692;48.956;9.200;2022-11-02T05:28:47;143.73;;;136.82;;
11269;SDS011;5692;48.956;9.200;2022-11-02T05:31:17;207.15;;;197.25;;
11269;SDS011;5692;48.956;9.200;2022-11-02T05:33:43;147.90;;;140.82;;
11269;SDS011;5692;48.956;9.200;2022-11-02T05:36:09;160.32;;;152.63;;
11269;SDS011;5692;48.956;9.200;2022-11-02T05:38:37;140.50;;;133.75;;
11269;SDS011;5692;48.956;9.200;2022-11-02T05:41:15;130.98;;;124.68;;
11269;SDS011;5692;48.956;9.200;2022-11-02T05:43:45;129.80;;;123.60;;
11269;SDS011;5692;48.956;9.200;2022-11-02T05:46:14;137.05;;;130.48;;
11269;SDS011;5692;48.956;9.200;2022-11-02T05:48:42;130.27;;;124.03;;
11269;SDS011;5692;48.956;9.200;2022-11-02T05:51:12;129.63;;;123.40;;
11269;SDS011;5692;48.956;9.200;2022-11-02T05:53:38;221.25;;;210.65;;
11269;SDS011;5692;48.956;9.200;2022-11-02T05:56:05;159.25;;;151.63;;
11269;SDS011;5692;48.956;9.200;2022-11-02T05:58:44;128.27;;;122.10;;
11269;SDS011;5692;48.956;9.200;2022-11-02T06:01:10;157.93;;;150.35;;
11269;SDS011;5692;48.956;9.200;2022-11-02T06:03:36;186.60;;;177.68;;
11269;SDS011;5692;48.956;9.200;2022-11-02T06:06:04;147.13;;;140.07;;
11269;SDS011;5692;48.956;9.200;2022-11-02T06:08:34;157.38;;;149.82;;
11269;SDS011;5692;48.956;9.200;2022-11-02T06:11:43;144.45;;;137.50;;
11269;SDS011;5692;48.956;9.200;2022-11-02T06:13:50;132.40;;;126.05;;
11269;SDS011;5692;48.956;9.200;2022-11-02T06:16:16;130.13;;;123.90;;
11269;SDS011;5692;48.956;9.200;2022-11-02T06:18:43;127.07;;;120.97;;
11269;SDS011;5692;48.956;9.200;2022-11-02T06:21:09;121.80;;;115.95;;
11269;SDS011;5692;48.956;9.200;2022-11-02T06:23:36;123.07;;;117.18;;
11269;SDS011;5692;48.956;9.200;2022-11-02T06:26:10;123.63;;;117.70;;
11269;SDS011;5692;48.956;9.200;2022-11-02T06:28:36;123.07;;;117.18;;
11269;SDS011;5692;48.956;9.200;2022-11-02T06:31:04;125.13;;;119.13;;
11269;SDS011;5692;48.956;9.200;2022-11-02T06:33:33;132.02;;;125.72;;
11269;SDS011;5692;48.956;9.200;2022-11-02T06:35:59;129.38;;;123.18;;
11269;SDS011;5692;48.956;9.200;2022-11-02T06:38:25;130.32;;;124.03;;
11269;SDS011;5692;48.956;9.200;2022-11-02T06:41:03;136.00;;;129.50;;
11269;SDS011;5692;48.956;9.200;2022-11-02T06:43:37;144.13;;;137.23;;
11269;SDS011;5692;48.956;9.200;2022-11-02T06:46:07;138.05;;;131.45;;
11269;SDS011;5692;48.956;9.200;2022-11-02T06:48:41;141.63;;;134.82;;
11269;SDS011;5692;48.956;9.200;2022-11-02T06:51:07;132.50;;;126.13;;
11269;SDS011;5692;48.956;9.200;2022-11-02T06:53:34;136.98;;;130.40;;
11269;SDS011;5692;48.956;9.200;2022-11-02T06:56:00;147.25;;;140.18;;
11269;SDS011;5692;48.956;9.200;2022-11-02T06:58:36;135.05;;;128.55;;
11269;SDS011;5692;48.956;9.200;2022-11-02T07:01:08;137.85;;;131.25;;
11269;SDS011;5692;48.956;9.200;2022-11-02T07:03:39;146.40;;;139.40;;
11269;SDS011;5692;48.956;9.200;2022-11-02T07:06:11;146.77;;;139.73;;
11269;SDS011;5692;48.956;9.200;2022-11-02T07:08:37;135.77;;;129.27;;
11269;SDS011;5692;48.956;9.200;2022-11-02T07:11:06;141.85;;;135.05;;
11269;SDS011;5692;48.956;9.200;2022-11-02T07:13:32;136.55;;;130.00;;
11269;SDS011;5692;48.956;9.200;2022-11-02T07:15:58;153.65;;;146.25;;
11269;SDS011;5692;48.956;9.200;2022-11-02T07:18:24;151.65;;;144.38;;
11269;SDS011;5692;48.956;9.200;2022-11-02T07:20:51;145.02;;;138.05;;
11269;SDS011;5692;48.956;9.200;2022-11-02T07:23:17;146.48;;;139.45;;
11269;SDS011;5692;48.956;9.200;2022-11-02T07:25:47;148.30;;;141.20;;
11269;SDS011;5692;48.956;9.200;2022-11-02T07:28:17;140.60;;;133.85;;
11269;SDS011;5692;48.956;9.200;2022-11-02T07:30:52;157.55;;;150.00;;
11269;SDS011;5692;48.956;9.200;2022-11-02T07:33:21;160.15;;;152.48;;
11269;SDS011;5692;48.956;9.200;2022-11-02T07:35:47;151.32;;;144.05;;
11269;SDS011;5692;48.956;9.200;2022-11-02T07:38:13;150.38;;;143.15;;
11269;SDS011;5692;48.956;9.200;2022-11-02T07:40:42;147.98;;;140.88;;
11269;SDS011;5692;48.956;9.200;2022-11-02T07:43:08;140.40;;;133.70;;
11269;SDS011;5692;48.956;9.200;2022-11-02T07:45:35;142.90;;;136.02;;
11269;SDS011;5692;48.956;9.200;2022-11-02T07:48:05;131.68;;;125.35;;
11269;SDS011;5692;48.956;9.200;2022-11-02T07:50:33;146.52;;;139.52;;
11269;SDS011;5692;48.956;9.200;2022-11-02T07:53:03;151.52;;;144.25;;
11269;SDS011;5692;48.956;9.200;2022-11-02T07:55:29;140.18;;;133.48;;
11269;SDS011;5692;48.956;9.200;2022-11-02T07:58:03;149.73;;;142.52;;
11269;SDS011;5692;48.956;9.200;2022-11-02T08:00:50;144.07;;;137.18;;
11269;SDS011;5692;48.956;9.200;2022-11-02T08:03:16;143.75;;;136.85;;
11269;SDS011;5692;48.956;9.200;2022-11-02T08:05:42;155.65;;;148.20;;
11269;SDS011;5692;48.956;9.200;2022-11-02T08:08:30;142.80;;;135.95;;
11269;SDS011;5692;48.956;9.200;2022-11-02T08:11:02;139.80;;;133.10;;
11269;SDS011;5692;48.956;9.200;2022-11-02T08:13:28;142.48;;;135.65;;
11269;SDS011;5692;48.956;9.200;2022-11-02T08:15:54;148.30;;;141.20;;
11269;SDS011;5692;48.956;9.200;2022-11-02T08:18:21;137.48;;;130.88;;
11269;SDS011;5692;48.956;9.200;2022-11-02T08:20:51;146.15;;;139.15;;
11269;SDS011;5692;48.956;9.200;2022-11-02T08:23:17;152.18;;;144.90;;
11269;SDS011;5692;48.956;9.200;2022-11-02T08:25:45;155.48;;;148.02;;
11269;SDS011;5692;48.956;9.200;2022-11-02T08:28:16;159.57;;;151.93;;
11269;SDS011;5692;48.956;9.200;2022-11-02T08:30:43;155.38;;;147.93;;
11269;SDS011;5692;48.956;9.200;2022-11-02T08:33:14;158.60;;;151.00;;
11269;SDS011;5692;48.956;9.200;2022-11-02T08:35:41;161.13;;;153.40;;
11269;SDS011;5692;48.956;9.200;2022-11-02T08:38:25;160.70;;;153.00;;
11269;SDS011;5692;48.956;9.200;2022-11-02T08:40:51;169.23;;;161.10;;
11269;SDS011;5692;48.956;9.200;2022-11-02T08:43:17;163.27;;;155.43;;
11269;SDS011;5692;48.956;9.200;2022-11-02T08:45:43;154.60;;;147.20;;
11269;SDS011;5692;48.956;9.200;2022-11-02T08:48:10;168.00;;;159.95;;
11269;SDS011;5692;48.956;9.200;2022-11-02T08:50:39;166.65;;;158.65;;
11269;SDS011;5692;48.956;9.200;2022-11-02T08:53:05;154.85;;;147.45;;
11269;SDS011;5692;48.956;9.200;2022-11-02T08:55:34;171.52;;;163.32;;
11269;SDS011;5692;48.956;9.200;2022-11-02T08:58:00;186.50;;;177.57;;
11269;SDS011;5692;48.956;9.200;2022-11-02T09:00:30;205.73;;;195.88;;
11269;SDS011;5692;48.956;9.200;2022-11-02T09:03:06;178.15;;;169.60;;
11269;SDS011;5692;48.956;9.200;2022-11-02T09:05:36;183.25;;;174.48;;
11269;SDS011;5692;48.956;9.200;2022-11-02T09:08:05;192.52;;;183.32;;
11269;SDS011;5692;48.956;9.200;2022-11-02T09:10:34;175.85;;;167.43;;
11269;SDS011;5692;48.956;9.200;2022-11-02T09:13:02;179.00;;;170.40;;
11269;SDS011;5692;48.956;9.200;2022-11-02T09:15:28;175.57;;;167.18;;
11269;SDS011;5692;48.956;9.200;2022-11-02T09:17:58;171.50;;;163.30;;
11269;SDS011;5692;48.956;9.200;2022-11-02T09:20:24;183.00;;;174.23;;
11269;SDS011;5692;48.956;9.200;2022-11-02T09:22:50;173.55;;;165.23;;
11269;SDS011;5692;48.956;9.200;2022-11-02T09:25:16;187.38;;;178.38;;
11269;SDS011;5692;48.956;9.200;2022-11-02T09:27:43;187.38;;;178.38;;
11269;SDS011;5692;48.956;9.200;2022-11-02T09:30:09;193.70;;;184.43;;
11269;SDS011;5692;48.956;9.200;2022-11-02T09:32:35;196.90;;;187.50;;
11269;SDS011;5692;48.956;9.200;2022-11-02T09:35:03;178.23;;;169.70;;
11269;SDS011;5692;48.956;9.200;2022-11-02T09:37:30;205.18;;;195.38;;
11269;SDS011;5692;48.956;9.200;2022-11-02T09:39:59;185.70;;;176.80;;
11269;SDS011;5692;48.956;9.200;2022-11-02T09:42:44;196.07;;;186.68;;
11269;SDS011;5692;48.956;9.200;2022-11-02T09:45:17;197.32;;;187.88;;
11269;SDS011;5692;48.956;9.200;2022-11-02T09:47:52;183.55;;;174.75;;
11269;SDS011;5692;48.956;9.200;2022-11-02T09:50:21;179.68;;;171.07;;
11269;SDS011;5692;48.956;9.200;2022-11-02T09:52:52;201.70;;;192.05;;
11269;SDS011;5692;48.956;9.200;2022-11-02T09:55:21;198.82;;;189.32;;
11269;SDS011;5692;48.956;9.200;2022-11-02T09:58:00;178.35;;;169.80;;
11269;SDS011;5692;48.956;9.200;2022-11-02T10:00:29;180.77;;;172.13;;
11269;SDS011;5692;48.956;9.200;2022-11-02T10:15:31;184.30;;;175.50;;
11269;SDS011;5692;48.956;9.200;2022-11-02T10:18:19;192.27;;;183.07;;
11269;SDS011;5692;48.956;9.200;2022-11-02T10:20:57;189.88;;;180.80;;
11269;SDS011;5692;48.956;9.200;2022-11-02T10:25:54;177.20;;;168.70;;
11269;SDS011;5692;48.956;9.200;2022-11-02T10:28:23;184.95;;;176.10;;
11269;SDS011;5692;48.956;9.200;2022-11-02T10:30:53;183.57;;;174.77;;
11269;SDS011;5692;48.956;9.200;2022-11-02T10:33:26;179.23;;;170.63;;
11269;SDS011;5692;48.956;9.200;2022-11-02T10:41:30;181.23;;;172.52;;
11269;SDS011;5692;48.956;9.200;2022-11-02T10:52:09;194.60;;;185.30;;
11269;SDS011;5692;48.956;9.200;2022-11-02T10:54:37;203.70;;;193.95;;
11269;SDS011;5692;48.956;9.200;2022-11-02T10:57:13;206.55;;;196.65;;
11269;SDS011;5692;48.956;9.200;2022-11-02T10:59:39;196.82;;;187.43;;
11269;SDS011;5692;48.956;9.200;2022-11-02T11:02:12;203.77;;;194.00;;
11269;SDS011;5692;48.956;9.200;2022-11-02T11:04:39;219.90;;;209.40;;
11269;SDS011;5692;48.956;9.200;2022-11-02T11:07:13;200.02;;;190.43;;
11269;SDS011;5692;48.956;9.200;2022-11-02T11:09:45;222.95;;;212.25;;
11269;SDS011;5692;48.956;9.200;2022-11-02T11:12:18;211.10;;;201.00;;
11269;SDS011;5692;48.956;9.200;2022-11-02T11:14:54;217.38;;;206.98;;
11269;SDS011;5692;48.956;9.200;2022-11-02T11:17:41;207.85;;;197.90;;
11269;SDS011;5692;48.956;9.200;2022-11-02T11:20:26;227.23;;;216.35;;
11269;SDS011;5692;48.956;9.200;2022-11-02T11:25:34;207.90;;;197.95;;
11269;SDS011;5692;48.956;9.200;2022-11-02T11:31:00;197.52;;;188.05;;
11269;SDS011;5692;48.956;9.200;2022-11-02T11:33:30;193.68;;;184.40;;
11269;SDS011;5692;48.956;9.200;2022-11-02T11:35:57;197.80;;;188.32;;
11269;SDS011;5692;48.956;9.200;2022-11-02T11:38:26;217.55;;;207.15;;
11269;SDS011;5692;48.956;9.200;2022-11-02T11:40:53;225.18;;;214.38;;
11269;SDS011;5692;48.956;9.200;2022-11-02T11:43:24;224.57;;;213.85;;
11269;SDS011;5692;48.956;9.200;2022-11-02T11:50:51;223.82;;;213.13;;
11269;SDS011;5692;48.956;9.200;2022-11-02T11:53:22;225.07;;;214.27;;
11269;SDS011;5692;48.956;9.200;2022-11-02T11:55:57;230.82;;;219.77;;
11269;SDS011;5692;48.956;9.200;2022-11-02T11:58:27;215.68;;;205.38;;
11269;SDS011;5692;48.956;9.200;2022-11-02T12:06:42;223.20;;;212.50;;
11269;SDS011;5692;48.956;9.200;2022-11-02T12:14:42;235.70;;;224.43;;
11269;SDS011;5692;48.956;9.200;2022-11-02T12:35:12;228.00;;;217.10;;
11269;SDS011;5692;48.956;9.200;2022-11-02T12:45:55;208.75;;;198.75;;
11269;SDS011;5692;48.956;9.200;2022-11-02T12:51:16;228.90;;;217.95;;
11269;SDS011;5692;48.956;9.200;2022-11-02T12:56:22;227.30;;;216.43;;
11269;SDS011;5692;48.956;9.200;2022-11-02T12:58:50;225.73;;;214.95;;
11269;SDS011;5692;48.956;9.200;2022-11-02T13:01:24;222.20;;;211.60;;
11269;SDS011;5692;48.956;9.200;2022-11-02T13:04:08;248.85;;;236.95;;
11269;SDS011;5692;48.956;9.200;2022-11-02T13:06:42;264.13;;;251.52;;
11269;SDS011;5692;48.956;9.200;2022-11-02T13:09:17;232.60;;;221.45;;
11269;SDS011;5692;48.956;9.200;2022-11-02T13:11:49;3.70;;;0.80;;
11269;SDS011;5692;48.956;9.200;2022-11-02T13:14:25;4.97;;;1.75;;
11269;SDS011;5692;48.956;9.200;2022-11-02T13:16:58;10.85;;;3.65;;
11269;SDS011;5692;48.956;9.200;2022-11-02T13:19:39;13.38;;;3.63;;
11269;SDS011;5692;48.956;9.200;2022-11-02T13:22:14;8.05;;;1.52;;
11269;SDS011;5692;48.956;9.200;2022-11-02T13:24:42;6.22;;;2.42;;
11269;SDS011;5692;48.956;9.200;2022-11-02T13:27:34;5.97;;;1.67;;
11269;SDS011;5692;48.956;9.200;2022-11-02T13:30:00;5.60;;;1.25;;
11269;SDS011;5692;48.956;9.200;2022-11-02T13:34:56;114.18;;;108.70;;
11269;SDS011;5692;48.956;9.200;2022-11-02T13:37:28;212.75;;;202.57;;
11269;SDS011;5692;48.956;9.200;2022-11-02T13:39:56;203.25;;;193.55;;
11269;SDS011;5692;48.956;9.200;2022-11-02T13:45:03;213.73;;;203.50;;
11269;SDS011;5692;48.956;9.200;2022-11-02T13:50:19;205.02;;;195.23;;
11269;SDS011;5692;48.956;9.200;2022-11-02T13:52:56;198.77;;;189.27;;
11269;SDS011;5692;48.956;9.200;2022-11-02T13:55:38;184.88;;;176.02;;
11269;SDS011;5692;48.956;9.200;2022-11-02T13:58:30;203.20;;;193.48;;
11269;SDS011;5692;48.956;9.200;2022-11-02T14:00:58;209.95;;;199.90;;
11269;SDS011;5692;48.956;9.200;2022-11-02T14:03:41;202.15;;;192.45;;
11269;SDS011;5692;48.956;9.200;2022-11-02T14:06:19;199.48;;;189.93;;
11269;SDS011;5692;48.956;9.200;2022-11-02T14:19:12;211.95;;;201.80;;
11269;SDS011;5692;48.956;9.200;2022-11-02T14:22:03;198.70;;;189.18;;
11269;SDS011;5692;48.956;9.200;2022-11-02T14:32:35;184.85;;;176.00;;
11269;SDS011;5692;48.956;9.200;2022-11-02T14:40:26;195.73;;;186.35;;
11269;SDS011;5692;48.956;9.200;2022-11-02T14:48:28;194.13;;;184.82;;
11269;SDS011;5692;48.956;9.200;2022-11-02T14:51:05;191.30;;;182.10;;
11269;SDS011;5692;48.956;9.200;2022-11-02T14:53:41;197.88;;;188.40;;
11269;SDS011;5692;48.956;9.200;2022-11-02T14:56:11;187.23;;;178.23;;
11269;SDS011;5692;48.956;9.200;2022-11-02T14:58:51;186.27;;;177.38;;
11269;SDS011;5692;48.956;9.200;2022-11-02T15:01:21;190.85;;;181.73;;
11269;SDS011;5692;48.956;9.200;2022-11-02T15:03:51;170.25;;;162.10;;
11269;SDS011;5692;48.956;9.200;2022-11-02T15:06:23;193.70;;;184.43;;
11269;SDS011;5692;48.956;9.200;2022-11-02T15:08:57;174.40;;;166.05;;
11269;SDS011;5692;48.956;9.200;2022-11-02T15:16:53;168.57;;;160.50;;
11269;SDS011;5692;48.956;9.200;2022-11-02T15:19:37;162.43;;;154.65;;
11269;SDS011;5692;48.956;9.200;2022-11-02T15:22:25;158.77;;;151.18;;
11269;SDS011;5692;48.956;9.200;2022-11-02T15:24:52;167.45;;;159.45;;
11269;SDS011;5692;48.956;9.200;2022-11-02T15:27:19;168.90;;;160.80;;
11269;SDS011;5692;48.956;9.200;2022-11-02T15:29:55;164.20;;;156.30;;
11269;SDS011;5692;48.956;9.200;2022-11-02T15:32:27;170.70;;;162.50;;
11269;SDS011;5692;48.956;9.200;2022-11-02T15:35:04;163.63;;;155.77;;
11269;SDS011;5692;48.956;9.200;2022-11-02T15:37:33;159.10;;;151.50;;
11269;SDS011;5692;48.956;9.200;2022-11-02T15:40:00;158.57;;;150.98;;
11269;SDS011;5692;48.956;9.200;2022-11-02T15:50:26;174.13;;;165.80;;
11269;SDS011;5692;48.956;9.200;2022-11-02T15:59:00;187.02;;;178.02;;
11269;SDS011;5692;48.956;9.200;2022-11-02T16:04:09;183.52;;;174.73;;
11269;SDS011;5692;48.956;9.200;2022-11-02T16:09:36;159.65;;;152.00;;
11269;SDS011;5692;48.956;9.200;2022-11-02T16:12:17;170.80;;;162.60;;
11269;SDS011;5692;48.956;9.200;2022-11-02T16:14:44;158.57;;;150.98;;
11269;SDS011;5692;48.956;9.200;2022-11-02T16:20:07;145.60;;;138.63;;
11269;SDS011;5692;48.956;9.200;2022-11-02T16:22:44;154.95;;;147.55;;
11269;SDS011;5692;48.956;9.200;2022-11-02T16:25:18;150.88;;;143.65;;
11269;SDS011;5692;48.956;9.200;2022-11-02T16:27:53;162.00;;;154.23;;
11269;SDS011;5692;48.956;9.200;2022-11-02T16:30:26;156.73;;;149.23;;
11269;SDS011;5692;48.956;9.200;2022-11-02T16:32:57;150.60;;;143.38;;
11269;SDS011;5692;48.956;9.200;2022-11-02T16:35:25;156.75;;;149.25;;
11269;SDS011;5692;48.956;9.200;2022-11-02T16:37:55;159.57;;;151.93;;
11269;SDS011;5692;48.956;9.200;2022-11-02T16:40:21;170.52;;;162.35;;
11269;SDS011;5692;48.956;9.200;2022-11-02T16:42:54;168.75;;;160.65;;
11269;SDS011;5692;48.956;9.200;2022-11-02T16:48:22;152.05;;;144.75;;
11269;SDS011;5692;48.956;9.200;2022-11-02T16:53:28;161.13;;;153.40;;
11269;SDS011;5692;48.956;9.200;2022-11-02T16:55:55;156.98;;;149.45;;
11269;SDS011;5692;48.956;9.200;2022-11-02T16:58:28;170.77;;;162.60;;
11269;SDS011;5692;48.956;9.200;2022-11-02T17:00:59;163.45;;;155.63;;
11269;SDS011;5692;48.956;9.200;2022-11-02T17:03:33;185.48;;;176.60;;
11269;SDS011;5692;48.956;9.200;2022-11-02T17:06:00;183.23;;;174.43;;
11269;SDS011;5692;48.956;9.200;2022-11-02T17:08:32;183.68;;;174.88;;
11269;SDS011;5692;48.956;9.200;2022-11-02T17:11:12;163.48;;;155.68;;
11269;SDS011;5692;48.956;9.200;2022-11-02T17:14:01;157.18;;;149.63;;
11269;SDS011;5692;48.956;9.200;2022-11-02T17:16:31;165.02;;;157.13;;
11269;SDS011;5692;48.956;9.200;2022-11-02T17:19:02;156.25;;;148.75;;
11269;SDS011;5692;48.956;9.200;2022-11-02T17:21:28;152.57;;;145.27;;
11269;SDS011;5692;48.956;9.200;2022-11-02T17:23:55;151.40;;;144.15;;
11269;SDS011;5692;48.956;9.200;2022-11-02T17:26:23;152.88;;;145.57;;
11269;SDS011;5692;48.956;9.200;2022-11-02T17:28:59;161.82;;;154.07;;
11269;SDS011;5692;48.956;9.200;2022-11-02T17:31:35;150.23;;;143.02;;
11269;SDS011;5692;48.956;9.200;2022-11-02T17:34:08;161.82;;;154.07;;
11269;SDS011;5692;48.956;9.200;2022-11-02T17:36:41;157.95;;;150.35;;